createdAt,value
2023-04-02T00:00:10.772Z,100.00
2023-04-02T00:02:57.275Z,100.00
2023-04-02T00:05:35.838Z,100.00
2023-04-02T00:08:10.167Z,100.00
2023-04-02T00:10:37.845Z,100.00
2023-04-02T00:13:04.154Z,100.00
2023-04-02T00:15:30.870Z,100.00
2023-04-02T00:17:57.772Z,100.00
2023-04-02T00:20:24.299Z,100.00
2023-04-02T00:22:50.700Z,100.00
2023-04-02T00:25:16.994Z,100.00
2023-04-02T00:27:43.547Z,100.00
2023-04-02T00:30:12.791Z,100.00
2023-04-02T00:32:39.180Z,100.00
2023-04-02T00:35:25.888Z,100.00
2023-04-02T00:37:52.258Z,100.00
2023-04-02T00:40:22.009Z,100.00
2023-04-02T00:42:48.776Z,100.00
2023-04-02T00:45:18.659Z,100.00
2023-04-02T00:47:46.310Z,100.00
2023-04-02T00:50:13.730Z,100.00
2023-04-02T00:52:40.086Z,100.00
2023-04-02T00:55:07.254Z,100.00
2023-04-02T00:57:33.691Z,100.00
2023-04-02T01:00:18.338Z,100.00
2023-04-02T01:02:46.206Z,100.00
2023-04-02T01:05:15.531Z,100.00
2023-04-02T01:07:54.103Z,100.00
2023-04-02T01:10:46.710Z,100.00
2023-04-02T01:13:16.280Z,100.00
2023-04-02T01:15:43.946Z,100.00
2023-04-02T01:18:10.282Z,100.00
2023-04-02T01:20:47.674Z,100.00
2023-04-02T01:23:26.311Z,100.00
2023-04-02T01:26:09.261Z,100.00
2023-04-02T01:28:46.209Z,100.00
2023-04-02T01:31:12.633Z,100.00
2023-04-02T01:33:39.299Z,100.00
2023-04-02T01:36:14.553Z,100.00
2023-04-02T01:38:43.322Z,100.00
2023-04-02T01:41:12.992Z,100.00
2023-04-02T01:43:51.222Z,100.00
2023-04-02T01:46:33.363Z,100.00
2023-04-02T01:49:02.189Z,100.00
2023-04-02T01:51:29.747Z,100.00
2023-04-02T01:53:56.528Z,100.00
2023-04-02T01:56:22.922Z,100.00
2023-04-02T01:58:49.333Z,100.00
2023-04-02T02:01:22.921Z,100.00
2023-04-02T02:03:49.339Z,100.00
2023-04-02T02:06:16.561Z,100.00
2023-04-02T02:08:49.887Z,100.00
2023-04-02T02:11:17.818Z,100.00
2023-04-02T02:13:47.951Z,100.00
2023-04-02T02:16:17.806Z,100.00
2023-04-02T02:18:45.302Z,100.00
2023-04-02T02:21:11.662Z,100.00
2023-04-02T02:23:37.954Z,100.00
2023-04-02T02:26:04.799Z,100.00
2023-04-02T02:28:31.380Z,100.00
2023-04-02T02:30:57.611Z,100.00
2023-04-02T02:33:25.453Z,100.00
2023-04-02T02:35:51.814Z,100.00
2023-04-02T02:38:37.009Z,100.00
2023-04-02T02:41:22.557Z,100.00
2023-04-02T02:43:55.007Z,100.00
2023-04-02T02:46:21.437Z,100.00
2023-04-02T02:48:47.746Z,100.00
2023-04-02T02:51:18.004Z,100.00
2023-04-02T02:53:46.282Z,100.00
2023-04-02T02:56:12.617Z,100.00
2023-04-02T02:58:38.911Z,100.00
2023-04-02T03:01:05.211Z,100.00
2023-04-02T03:03:32.463Z,100.00
2023-04-02T03:06:05.275Z,100.00
2023-04-02T03:08:31.775Z,100.00
2023-04-02T03:11:16.922Z,100.00
2023-04-02T03:13:47.245Z,100.00
2023-04-02T03:16:16.762Z,100.00
2023-04-02T03:18:54.150Z,100.00
2023-04-02T03:21:26.646Z,100.00
2023-04-02T03:24:04.123Z,100.00
2023-04-02T03:26:32.808Z,100.00
2023-04-02T03:29:02.447Z,100.00
2023-04-02T03:31:35.946Z,100.00
2023-04-02T03:34:11.502Z,100.00
2023-04-02T03:36:43.709Z,100.00
2023-04-02T03:39:10.056Z,100.00
2023-04-02T03:41:55.370Z,100.00
2023-04-02T03:44:24.102Z,100.00
2023-04-02T03:46:57.362Z,100.00
2023-04-02T03:49:42.689Z,100.00
2023-04-02T03:52:14.545Z,100.00
2023-04-02T03:54:41.429Z,100.00
2023-04-02T03:57:34.282Z,100.00
2023-04-02T04:00:00.601Z,100.00
2023-04-02T04:02:26.998Z,100.00
2023-04-02T04:04:55.882Z,100.00
2023-04-02T04:07:28.286Z,100.00
2023-04-02T04:09:54.664Z,100.00
2023-04-02T04:12:20.970Z,100.00
2023-04-02T04:15:19.754Z,100.00
2023-04-02T04:17:55.060Z,100.00
2023-04-02T04:20:23.492Z,100.00
2023-04-02T04:22:50.085Z,100.00
2023-04-02T04:25:21.141Z,100.00
2023-04-02T04:28:05.371Z,100.00
2023-04-02T04:30:42.367Z,100.00
2023-04-02T04:33:15.313Z,100.00
2023-04-02T04:35:45.894Z,100.00
2023-04-02T04:38:14.316Z,100.00
2023-04-02T04:40:53.807Z,100.00
2023-04-02T04:43:30.164Z,100.00
2023-04-02T04:45:58.752Z,100.00
2023-04-02T04:48:27.166Z,100.00
2023-04-02T04:50:54.424Z,100.00
2023-04-02T04:53:21.710Z,100.00
2023-04-02T04:55:48.829Z,100.00
2023-04-02T04:58:17.638Z,100.00
2023-04-02T05:01:04.954Z,100.00
2023-04-02T05:03:49.075Z,100.00
2023-04-02T05:06:18.457Z,100.00
2023-04-02T05:08:45.733Z,100.00
2023-04-02T05:11:17.686Z,100.00
2023-04-02T05:13:47.172Z,100.00
2023-04-02T05:16:16.034Z,100.00
2023-04-02T05:19:04.030Z,100.00
2023-04-02T05:21:36.644Z,100.00
2023-04-02T05:24:12.072Z,100.00
2023-04-02T05:26:42.380Z,100.00
2023-04-02T05:29:09.952Z,100.00
2023-04-02T05:31:40.737Z,100.00
2023-04-02T05:34:07.065Z,100.00
2023-04-02T05:36:33.448Z,100.00
2023-04-02T05:39:00.146Z,100.00
2023-04-02T05:41:27.443Z,100.00
2023-04-02T05:44:03.443Z,100.00
2023-04-02T05:46:32.558Z,100.00
2023-04-02T05:48:58.946Z,100.00
2023-04-02T05:51:51.569Z,100.00
2023-04-02T05:54:28.138Z,100.00
2023-04-02T05:57:02.883Z,100.00
2023-04-02T05:59:29.946Z,100.00
2023-04-02T06:02:04.807Z,100.00
2023-04-02T06:04:43.703Z,100.00
2023-04-02T06:07:12.292Z,100.00
2023-04-02T06:09:41.589Z,100.00
2023-04-02T06:12:11.178Z,100.00
2023-04-02T06:14:39.727Z,100.00
2023-04-02T06:17:06.114Z,100.00
2023-04-02T06:19:33.472Z,100.00
2023-04-02T06:22:02.083Z,100.00
2023-04-02T06:24:28.393Z,100.00
2023-04-02T06:26:59.810Z,100.00
2023-04-02T06:29:40.108Z,100.00
2023-04-02T06:32:07.120Z,100.00
2023-04-02T06:34:33.861Z,100.00
2023-04-02T06:37:18.222Z,100.00
2023-04-02T06:39:47.132Z,100.00
2023-04-02T06:42:14.199Z,100.00
2023-04-02T06:44:40.619Z,100.00
2023-04-02T06:47:19.454Z,100.00
2023-04-02T06:49:50.262Z,100.00
2023-04-02T06:52:27.156Z,100.00
2023-04-02T06:54:53.810Z,100.00
2023-04-02T06:57:20.147Z,100.00
2023-04-02T06:59:46.452Z,100.00
2023-04-02T07:02:16.803Z,100.00
2023-04-02T07:04:43.161Z,100.00
2023-04-02T07:07:09.583Z,100.00
2023-04-02T07:09:36.054Z,100.00
2023-04-02T07:12:02.377Z,100.00
2023-04-02T07:14:28.694Z,100.00
2023-04-02T07:16:55.241Z,100.00
2023-04-02T07:19:24.486Z,100.00
2023-04-02T07:21:50.946Z,100.00
2023-04-02T07:24:17.323Z,100.00
2023-04-02T07:26:43.680Z,100.00
2023-04-02T07:29:13.978Z,100.00
2023-04-02T07:31:42.027Z,100.00
2023-04-02T07:34:08.685Z,100.00
2023-04-02T07:36:35.342Z,100.00
2023-04-02T07:39:02.008Z,100.00
2023-04-02T07:41:28.337Z,100.00
2023-04-02T07:43:54.696Z,100.00
2023-04-02T07:46:21.069Z,100.00
2023-04-02T07:48:47.674Z,100.00
2023-04-02T07:51:24.094Z,100.00
2023-04-02T07:53:54.748Z,100.00
2023-04-02T07:56:21.258Z,100.00
2023-04-02T07:58:47.651Z,100.00
2023-04-02T08:01:24.347Z,100.00
2023-04-02T08:03:52.971Z,100.00
2023-04-02T08:06:21.193Z,100.00
2023-04-02T08:08:47.486Z,100.00
2023-04-02T08:11:13.812Z,100.00
2023-04-02T08:13:40.113Z,100.00
2023-04-02T08:16:06.904Z,100.00
2023-04-02T08:18:33.290Z,100.00
2023-04-02T08:21:01.923Z,100.00
2023-04-02T08:23:28.378Z,100.00
2023-04-02T08:25:54.849Z,100.00
2023-04-02T08:28:21.295Z,100.00
2023-04-02T08:30:49.092Z,100.00
2023-04-02T08:33:17.332Z,100.00
2023-04-02T08:35:44.566Z,100.00
2023-04-02T08:38:14.642Z,100.00
2023-04-02T08:40:44.310Z,100.00
2023-04-02T08:43:13.593Z,100.00
2023-04-02T08:45:56.449Z,100.00
2023-04-02T08:48:23.423Z,100.00
2023-04-02T08:50:49.919Z,100.00
2023-04-02T08:53:23.802Z,100.00
2023-04-02T08:56:05.259Z,100.00
2023-04-02T08:58:44.104Z,100.00
2023-04-02T09:01:16.312Z,100.00
2023-04-02T09:03:42.984Z,100.00
2023-04-02T09:06:10.213Z,100.00
2023-04-02T09:08:36.683Z,100.00
2023-04-02T09:11:17.184Z,100.00
2023-04-02T09:13:46.352Z,100.00
2023-04-02T09:16:14.531Z,100.00
2023-04-02T09:18:41.785Z,100.00
2023-04-02T09:21:17.238Z,100.00
2023-04-02T09:23:43.590Z,100.00
2023-04-02T09:26:23.508Z,100.00
2023-04-02T09:28:53.803Z,100.00
2023-04-02T09:31:23.754Z,100.00
2023-04-02T09:33:50.849Z,100.00
2023-04-02T09:36:29.523Z,100.00
2023-04-02T09:39:01.373Z,100.00
2023-04-02T09:41:28.898Z,100.00
2023-04-02T09:44:13.534Z,100.00
2023-04-02T09:46:50.012Z,100.00
2023-04-02T09:49:17.912Z,100.00
2023-04-02T09:51:44.202Z,100.00
2023-04-02T09:54:14.486Z,100.00
2023-04-02T09:56:41.129Z,100.00
2023-04-02T09:59:15.169Z,100.00
2023-04-02T10:01:57.020Z,100.00
2023-04-02T10:04:47.095Z,100.00
2023-04-02T10:07:30.619Z,100.00
2023-04-02T10:09:57.679Z,100.00
2023-04-02T10:12:23.967Z,100.00
2023-04-02T10:14:50.262Z,100.00
2023-04-02T10:17:18.372Z,100.00
2023-04-02T10:19:52.583Z,100.00
2023-04-02T10:22:19.802Z,100.00
2023-04-02T10:24:48.628Z,100.00
2023-04-02T10:27:26.416Z,100.00
2023-04-02T10:29:52.759Z,100.00
2023-04-02T10:32:27.064Z,100.00
2023-04-02T10:34:53.398Z,100.00
2023-04-02T10:37:38.743Z,100.00
2023-04-02T10:40:23.147Z,100.00
2023-04-02T10:42:55.580Z,100.00
2023-04-02T10:45:31.438Z,100.00
2023-04-02T10:47:57.750Z,100.00
2023-04-02T10:50:26.757Z,100.00
2023-04-02T10:52:56.717Z,100.00
2023-04-02T10:55:28.053Z,100.00
2023-04-02T10:57:54.328Z,100.00
2023-04-02T11:00:31.332Z,100.00
2023-04-02T11:03:06.948Z,100.00
2023-04-02T11:05:43.731Z,100.00
2023-04-02T11:08:18.297Z,100.00
2023-04-02T11:10:46.264Z,100.00
2023-04-02T11:13:12.512Z,100.00
2023-04-02T11:15:38.878Z,100.00
2023-04-02T11:18:05.371Z,100.00
2023-04-02T11:20:43.201Z,100.00
2023-04-02T11:23:12.721Z,100.00
2023-04-02T11:25:39.869Z,100.00
2023-04-02T11:28:21.512Z,100.00
2023-04-02T11:30:48.492Z,100.00
2023-04-02T11:33:33.877Z,100.00
2023-04-02T11:36:02.718Z,100.00
2023-04-02T11:38:29.021Z,100.00
2023-04-02T11:40:55.274Z,100.00
2023-04-02T11:43:33.752Z,100.00
2023-04-02T11:46:06.586Z,100.00
2023-04-02T11:48:35.903Z,100.00
2023-04-02T11:51:15.497Z,100.00
2023-04-02T11:53:42.129Z,100.00
2023-04-02T11:56:09.681Z,100.00
2023-04-02T11:58:45.300Z,100.00
2023-04-02T12:01:30.396Z,100.00
2023-04-02T12:04:12.613Z,100.00
2023-04-02T12:06:47.900Z,100.00
2023-04-02T12:09:18.502Z,100.00
2023-04-02T12:11:44.909Z,100.00
2023-04-02T12:14:31.406Z,100.00
2023-04-02T12:16:57.925Z,100.00
2023-04-02T12:19:24.382Z,100.00
2023-04-02T12:21:52.846Z,100.00
2023-04-02T12:24:20.630Z,100.00
2023-04-02T12:26:47.272Z,100.00
2023-04-02T12:29:16.635Z,100.00
2023-04-02T12:31:46.399Z,100.00
2023-04-02T12:34:16.784Z,100.00
2023-04-02T12:36:55.847Z,100.00
2023-04-02T12:39:22.467Z,100.00
2023-04-02T12:41:48.801Z,100.00
2023-04-02T12:44:20.198Z,100.00
2023-04-02T12:46:46.883Z,100.00
2023-04-02T12:49:16.187Z,100.00
2023-04-02T12:51:42.607Z,100.00
2023-04-02T12:54:11.347Z,100.00
2023-04-02T12:56:37.641Z,100.00
2023-04-02T12:59:04.238Z,100.00
2023-04-02T13:01:31.993Z,100.00
2023-04-02T13:04:11.612Z,100.00
2023-04-02T13:06:38.571Z,100.00
2023-04-02T13:09:27.354Z,100.00
2023-04-02T13:11:54.819Z,100.00
2023-04-02T13:14:21.159Z,100.00
2023-04-02T13:16:47.515Z,100.00
2023-04-02T13:19:16.889Z,100.00
2023-04-02T13:21:43.800Z,100.00
2023-04-02T13:24:17.116Z,100.00
2023-04-02T13:26:43.592Z,100.00
2023-04-02T13:29:10.111Z,98.80
2023-04-02T13:31:36.848Z,98.66
2023-04-02T13:34:03.237Z,82.25
2023-04-02T13:36:29.728Z,83.39
2023-04-02T13:38:58.320Z,76.00
2023-04-02T13:41:26.381Z,72.87
2023-04-02T13:43:53.076Z,65.66
2023-04-02T13:46:23.544Z,66.63
2023-04-02T13:48:50.360Z,70.37
2023-04-02T13:51:17.727Z,66.83
2023-04-02T13:53:44.239Z,71.92
2023-04-02T13:56:10.509Z,70.33
2023-04-02T13:58:36.853Z,65.47
2023-04-02T14:01:03.247Z,64.45
2023-04-02T14:03:29.611Z,63.80
2023-04-02T14:06:05.278Z,61.75
2023-04-02T14:08:50.196Z,63.01
2023-04-02T14:11:22.791Z,60.82
2023-04-02T14:14:08.170Z,63.07
2023-04-02T14:16:44.037Z,62.46
2023-04-02T14:19:10.841Z,61.77
2023-04-02T14:21:49.301Z,59.96
2023-04-02T14:24:17.281Z,59.00
2023-04-02T14:27:03.032Z,56.45
2023-04-02T14:29:30.356Z,58.42
2023-04-02T14:32:06.627Z,56.55
2023-04-02T14:34:35.343Z,55.87
2023-04-02T14:37:04.818Z,56.70
2023-04-02T14:39:49.924Z,61.95
2023-04-02T14:42:17.224Z,57.31
2023-04-02T14:44:49.090Z,58.34
2023-04-02T14:47:19.599Z,61.38
2023-04-02T14:49:46.030Z,61.57
2023-04-02T14:52:19.078Z,61.09
2023-04-02T14:54:54.559Z,62.98
2023-04-02T14:57:25.017Z,59.58
2023-04-02T15:00:00.657Z,60.30
2023-04-02T15:02:39.263Z,59.08
2023-04-02T15:05:06.542Z,57.07
2023-04-02T15:07:44.902Z,55.92
2023-04-02T15:10:16.135Z,58.96
2023-04-02T15:12:42.602Z,66.14
2023-04-02T15:15:15.261Z,65.99
2023-04-02T15:17:41.664Z,59.72
2023-04-02T15:20:13.428Z,60.74
2023-04-02T15:22:55.179Z,56.92
2023-04-02T15:25:44.733Z,58.95
2023-04-02T15:28:27.876Z,60.67
2023-04-02T15:30:56.950Z,63.27
2023-04-02T15:33:23.335Z,64.24
2023-04-02T15:35:52.296Z,66.15
2023-04-02T15:38:22.589Z,65.65
2023-04-02T15:41:04.470Z,68.36
2023-04-02T15:43:38.209Z,72.43
2023-04-02T15:46:16.884Z,68.27
2023-04-02T15:48:43.247Z,66.90
2023-04-02T15:51:09.520Z,64.82
2023-04-02T15:53:56.144Z,63.42
2023-04-02T15:56:25.944Z,62.94
2023-04-02T15:58:52.794Z,63.05
2023-04-02T16:01:37.996Z,63.43
2023-04-02T16:04:07.063Z,66.75
2023-04-02T16:06:43.579Z,70.41
2023-04-02T16:09:14.972Z,72.12
2023-04-02T16:11:41.342Z,68.20
2023-04-02T16:14:14.123Z,74.12
2023-04-02T16:16:42.771Z,76.16
2023-04-02T16:19:15.907Z,74.93
2023-04-02T16:21:46.097Z,72.69
2023-04-02T16:24:12.594Z,72.02
2023-04-02T16:26:44.482Z,74.20
2023-04-02T16:29:10.905Z,73.25
2023-04-02T16:31:55.809Z,76.02
2023-04-02T16:34:34.701Z,75.54
2023-04-02T16:37:24.369Z,77.19
2023-04-02T16:39:59.962Z,85.62
2023-04-02T16:42:29.234Z,93.00
2023-04-02T16:45:11.907Z,96.60
2023-04-02T16:47:47.500Z,100.00
2023-04-02T16:50:29.130Z,100.00
2023-04-02T16:53:14.469Z,98.47
2023-04-02T16:55:40.718Z,100.00
2023-04-02T16:58:22.795Z,100.00
2023-04-02T17:00:55.137Z,100.00
2023-04-02T17:03:40.393Z,100.00
2023-04-02T17:06:12.803Z,100.00
2023-04-02T17:08:42.419Z,100.00
2023-04-02T17:11:09.932Z,100.00
2023-04-02T17:13:43.413Z,100.00
2023-04-02T17:16:13.504Z,100.00
2023-04-02T17:18:40.690Z,100.00
2023-04-02T17:21:10.994Z,100.00
2023-04-02T17:23:56.959Z,100.00
2023-04-02T17:26:24.431Z,100.00
2023-04-02T17:28:51.190Z,100.00
2023-04-02T17:31:24.767Z,100.00
2023-04-02T17:33:51.212Z,100.00
2023-04-02T17:36:24.847Z,100.00
2023-04-02T17:38:56.327Z,100.00
2023-04-02T17:41:26.263Z,100.00
2023-04-02T17:44:11.666Z,100.00
2023-04-02T17:46:39.341Z,100.00
2023-04-02T17:49:11.743Z,100.00
2023-04-02T17:51:41.305Z,100.00
2023-04-02T17:54:29.945Z,100.00
2023-04-02T17:57:15.691Z,100.00
2023-04-02T17:59:47.794Z,100.00
2023-04-02T18:02:20.458Z,100.00
2023-04-02T18:04:53.229Z,100.00
2023-04-02T18:07:31.256Z,100.00
2023-04-02T18:09:57.504Z,100.00
2023-04-02T18:12:23.784Z,100.00
2023-04-02T18:14:59.159Z,100.00
2023-04-02T18:17:25.674Z,100.00
2023-04-02T18:20:26.165Z,100.00
2023-04-02T18:23:02.443Z,100.00
2023-04-02T18:25:38.646Z,100.00
2023-04-02T18:28:24.258Z,100.00
2023-04-02T18:31:01.744Z,100.00
2023-04-02T18:33:43.337Z,100.00
2023-04-02T18:36:16.333Z,100.00
2023-04-02T18:38:42.638Z,100.00
2023-04-02T18:41:14.072Z,100.00
2023-04-02T18:43:49.478Z,100.00
2023-04-02T18:46:24.931Z,100.00
2023-04-02T18:49:00.056Z,100.00
2023-04-02T18:51:27.079Z,100.00
2023-04-02T18:54:16.436Z,100.00
2023-04-02T18:56:42.749Z,100.00
2023-04-02T18:59:12.018Z,100.00
2023-04-02T19:01:46.482Z,100.00
2023-04-02T19:04:13.228Z,100.00
2023-04-02T19:06:41.751Z,100.00
2023-04-02T19:09:12.448Z,100.00
2023-04-02T19:11:41.209Z,100.00
2023-04-02T19:14:11.068Z,100.00
2023-04-02T19:16:40.350Z,100.00
2023-04-02T19:19:19.700Z,100.00
2023-04-02T19:21:55.233Z,100.00
2023-04-02T19:24:39.914Z,100.00
2023-04-02T19:27:06.360Z,100.00
2023-04-02T19:29:41.708Z,100.00
2023-04-02T19:32:27.044Z,100.00
2023-04-02T19:34:56.735Z,100.00
2023-04-02T19:37:28.797Z,100.00
2023-04-02T19:40:01.005Z,100.00
2023-04-02T19:42:27.264Z,100.00
2023-04-02T19:44:53.638Z,100.00
2023-04-02T19:47:24.246Z,100.00
2023-04-02T19:49:50.712Z,100.00
2023-04-02T19:52:17.156Z,100.00
2023-04-02T19:54:43.478Z,100.00
2023-04-02T19:57:12.257Z,100.00
2023-04-02T19:59:41.348Z,100.00
2023-04-02T20:02:10.292Z,100.00
2023-04-02T20:04:36.751Z,100.00
2023-04-02T20:07:03.115Z,100.00
2023-04-02T20:09:29.781Z,100.00
2023-04-02T20:11:56.297Z,100.00
2023-04-02T20:14:22.614Z,100.00
2023-04-02T20:16:48.898Z,100.00
2023-04-02T20:19:15.549Z,100.00
2023-04-02T20:21:41.997Z,100.00
2023-04-02T20:24:08.529Z,100.00
2023-04-02T20:26:35.160Z,100.00
2023-04-02T20:29:01.528Z,100.00
2023-04-02T20:31:28.025Z,100.00
2023-04-02T20:33:57.102Z,100.00
2023-04-02T20:36:24.699Z,100.00
2023-04-02T20:38:51.502Z,100.00
2023-04-02T20:41:18.189Z,100.00
2023-04-02T20:43:44.554Z,100.00
2023-04-02T20:46:12.245Z,100.00
2023-04-02T20:48:39.004Z,100.00
2023-04-02T20:51:05.997Z,100.00
2023-04-02T20:53:34.263Z,100.00
2023-04-02T20:56:05.684Z,100.00
2023-04-02T20:58:32.285Z,100.00
2023-04-02T21:01:15.378Z,100.00
2023-04-02T21:03:41.855Z,100.00
2023-04-02T21:06:14.928Z,100.00
2023-04-02T21:08:41.319Z,100.00
2023-04-02T21:11:08.331Z,100.00
2023-04-02T21:13:37.646Z,100.00
2023-04-02T21:16:04.905Z,100.00
2023-04-02T21:18:31.462Z,100.00
2023-04-02T21:21:02.306Z,100.00
2023-04-02T21:23:29.060Z,100.00
2023-04-02T21:25:59.436Z,100.00
2023-04-02T21:28:26.089Z,100.00
2023-04-02T21:30:52.507Z,100.00
2023-04-02T21:33:18.848Z,100.00
2023-04-02T21:35:45.599Z,100.00
2023-04-02T21:38:12.009Z,100.00
2023-04-02T21:40:38.399Z,100.00
2023-04-02T21:43:04.714Z,100.00
2023-04-02T21:45:31.006Z,100.00
2023-04-02T21:47:57.349Z,100.00
2023-04-02T21:50:23.699Z,100.00
2023-04-02T21:52:50.002Z,100.00
2023-04-02T21:55:16.337Z,100.00
2023-04-02T21:57:42.667Z,100.00
2023-04-02T22:00:12.234Z,100.00
2023-04-02T22:02:38.831Z,100.00
2023-04-02T22:05:05.570Z,100.00
2023-04-02T22:07:31.926Z,100.00
2023-04-02T22:09:58.258Z,100.00
2023-04-02T22:12:24.555Z,100.00
2023-04-02T22:14:51.680Z,100.00
2023-04-02T22:17:18.276Z,100.00
2023-04-02T22:19:44.647Z,100.00
2023-04-02T22:22:11.030Z,100.00
2023-04-02T22:24:37.355Z,100.00
2023-04-02T22:27:03.758Z,100.00
2023-04-02T22:29:30.050Z,100.00
2023-04-02T22:31:56.363Z,100.00
2023-04-02T22:34:22.658Z,100.00
2023-04-02T22:36:48.923Z,100.00
2023-04-02T22:39:17.748Z,100.00
2023-04-02T22:41:44.061Z,100.00
2023-04-02T22:44:13.066Z,100.00
2023-04-02T22:46:39.452Z,100.00
2023-04-02T22:49:06.223Z,100.00
2023-04-02T22:51:32.580Z,100.00
2023-04-02T22:53:58.943Z,100.00
2023-04-02T22:56:26.627Z,100.00
2023-04-02T22:58:52.981Z,100.00
2023-04-02T23:01:21.387Z,100.00
2023-04-02T23:03:47.750Z,100.00
2023-04-02T23:06:14.977Z,100.00
2023-04-02T23:08:41.399Z,100.00
2023-04-02T23:11:08.935Z,100.00
2023-04-02T23:13:35.750Z,100.00
2023-04-02T23:16:02.629Z,100.00
2023-04-02T23:18:29.500Z,100.00
2023-04-02T23:20:55.852Z,100.00
2023-04-02T23:23:22.284Z,100.00
2023-04-02T23:25:48.603Z,100.00
2023-04-02T23:28:14.907Z,100.00
2023-04-02T23:30:41.686Z,100.00
2023-04-02T23:33:08.000Z,100.00
2023-04-02T23:35:36.187Z,100.00
2023-04-02T23:38:02.642Z,100.00
2023-04-02T23:40:28.930Z,100.00
2023-04-02T23:42:55.217Z,100.00
2023-04-02T23:45:21.524Z,100.00
2023-04-02T23:47:47.864Z,100.00
2023-04-02T23:50:14.237Z,100.00
2023-04-02T23:52:40.840Z,100.00
2023-04-02T23:55:07.300Z,100.00
2023-04-02T23:57:33.657Z,100.00
